createdAt,value
2022-08-04T00:02:26.909Z,98987.91
2022-08-04T00:06:37.142Z,98980.53
2022-08-04T00:10:40.370Z,98981.91
2022-08-04T00:14:48.358Z,98978.56
2022-08-04T00:19:03.599Z,98977.06
2022-08-04T00:23:06.434Z,98978.84
2022-08-04T00:27:08.909Z,98983.47
2022-08-04T00:31:11.637Z,98979.41
2022-08-04T00:35:14.401Z,98987.53
2022-08-04T00:39:17.104Z,98979.06
2022-08-04T00:43:25.837Z,98981.16
2022-08-04T00:47:46.214Z,98981.53
2022-08-04T00:52:32.253Z,98974.94
2022-08-04T00:56:49.901Z,98976.16
2022-08-04T01:01:19.505Z,98986.91
2022-08-04T01:05:40.706Z,98975.03
2022-08-04T01:10:02.657Z,98981.66
2022-08-04T01:14:13.282Z,98985.34
2022-08-04T01:18:35.846Z,98979.31
2022-08-04T01:23:23.722Z,98973.41
2022-08-04T01:27:39.933Z,98973.25
2022-08-04T01:31:56.090Z,98970.69
2022-08-04T01:36:04.662Z,98966.03
2022-08-04T01:40:07.876Z,98967.34
2022-08-04T01:44:11.167Z,98963.91
2022-08-04T01:48:14.421Z,98970.28
2022-08-04T01:52:17.857Z,98962.78
2022-08-04T01:56:20.698Z,98962.78
2022-08-04T02:00:27.368Z,98962.72
2022-08-04T02:04:29.351Z,98962.84
2022-08-04T02:08:30.834Z,98962.16
2022-08-04T02:12:56.293Z,98968.66
2022-08-04T02:16:57.930Z,98961.78
2022-08-04T02:21:03.729Z,98958.22
2022-08-04T02:25:08.743Z,98958.50
2022-08-04T02:29:20.467Z,98961.28
2022-08-04T02:33:27.085Z,98948.94
2022-08-04T02:37:32.104Z,98952.69
2022-08-04T02:41:34.863Z,98955.81
2022-08-04T02:45:38.129Z,98952.44
2022-08-04T02:49:42.280Z,98951.66
2022-08-04T02:53:44.867Z,98954.56
2022-08-04T02:57:47.753Z,98955.59
2022-08-04T03:01:57.374Z,98955.13
2022-08-04T03:06:41.225Z,98951.88
2022-08-04T03:11:04.294Z,98960.84
2022-08-04T03:15:43.618Z,98952.09
2022-08-04T03:20:07.234Z,98948.63
2022-08-04T03:24:30.549Z,98960.22
2022-08-04T03:28:53.314Z,98954.34
2022-08-04T03:33:20.295Z,98966.59
2022-08-04T03:37:38.968Z,98958.97
2022-08-04T03:42:03.923Z,98960.09
2022-08-04T03:46:05.971Z,98956.78
2022-08-04T03:50:25.637Z,98961.22
2022-08-04T03:54:44.539Z,98962.16
2022-08-04T03:59:16.614Z,98961.28
2022-08-04T04:03:36.759Z,98957.81
2022-08-04T04:08:01.679Z,98969.38
2022-08-04T04:12:24.852Z,98974.75
2022-08-04T04:16:41.921Z,98965.06
2022-08-04T04:20:49.604Z,98973.84
2022-08-04T04:25:24.961Z,98969.59
2022-08-04T04:29:33.465Z,98973.84
2022-08-04T04:33:48.905Z,98966.81
2022-08-04T04:38:05.623Z,98974.50
2022-08-04T04:42:45.633Z,98973.53
2022-08-04T04:47:09.094Z,98979.53
2022-08-04T04:51:16.717Z,98978.50
2022-08-04T04:55:26.726Z,98980.69
2022-08-04T04:59:34.721Z,98989.56
2022-08-04T05:04:14.754Z,98998.34
2022-08-04T05:08:43.239Z,98991.00
2022-08-04T05:14:34.997Z,98995.81
2022-08-04T05:17:38.755Z,98998.81
2022-08-04T05:21:47.349Z,99000.59
2022-08-04T05:26:10.173Z,99005.38
2022-08-04T05:30:12.518Z,99005.28
2022-08-04T05:34:24.049Z,99007.22
2022-08-04T05:38:29.749Z,99008.09
2022-08-04T05:42:38.656Z,99006.25
2022-08-04T05:46:40.930Z,99004.94
2022-08-04T05:50:43.577Z,99002.59
2022-08-04T05:54:46.234Z,99001.75
2022-08-04T05:58:48.237Z,98997.66
2022-08-04T06:02:52.321Z,98998.22
2022-08-04T06:06:54.521Z,99008.75
2022-08-04T06:10:58.887Z,99003.63
2022-08-04T06:15:01.681Z,98990.69
2022-08-04T06:20:01.260Z,98990.16
2022-08-04T06:23:31.653Z,98997.59
2022-08-04T06:27:33.799Z,99005.13
2022-08-04T06:32:29.845Z,98995.22
2022-08-04T06:36:19.229Z,99000.81
2022-08-04T06:40:31.091Z,99003.19
2022-08-04T06:44:34.767Z,99002.13
2022-08-04T06:48:36.789Z,98999.69
2022-08-04T06:52:39.263Z,99004.66
2022-08-04T06:56:44.407Z,99007.38
2022-08-04T07:00:47.254Z,99007.72
2022-08-04T07:04:49.173Z,99009.59
2022-08-04T07:08:51.669Z,99001.69
2022-08-04T07:12:54.252Z,99000.41
2022-08-04T07:16:56.838Z,98999.09
2022-08-04T07:20:58.649Z,98991.38
2022-08-04T07:25:01.232Z,98997.00
2022-08-04T07:29:02.924Z,98994.72
2022-08-04T07:33:06.681Z,98996.53
2022-08-04T07:37:08.374Z,98993.66
2022-08-04T07:45:32.082Z,98992.94
2022-08-04T07:49:55.065Z,98993.06
2022-08-04T07:53:57.681Z,99002.59
2022-08-04T07:57:59.178Z,99002.66
2022-08-04T08:02:01.554Z,99007.00
2022-08-04T08:06:17.348Z,99001.69
2022-08-04T08:10:25.943Z,99002.44
2022-08-04T08:14:28.366Z,99000.75
2022-08-04T08:18:30.841Z,98998.91
2022-08-04T08:22:32.613Z,98997.22
2022-08-04T08:26:35.421Z,98994.94
2022-08-04T08:30:37.870Z,98997.81
2022-08-04T08:34:41.319Z,98999.00
2022-08-04T08:38:53.208Z,98993.84
2022-08-04T08:44:04.977Z,98992.91
2022-08-04T08:48:08.564Z,98987.19
2022-08-04T08:52:56.254Z,98996.00
2022-08-04T08:57:16.896Z,98999.06
2022-08-04T09:02:02.169Z,98986.78
2022-08-04T09:06:09.753Z,98997.25
2022-08-04T09:10:33.661Z,98996.34
2022-08-04T09:14:44.019Z,98988.94
2022-08-04T09:19:04.601Z,98993.84
2022-08-04T09:23:16.145Z,98996.59
2022-08-04T09:27:28.499Z,99003.28
2022-08-04T09:31:49.086Z,98997.72
2022-08-04T09:36:27.622Z,98994.50
2022-08-04T09:40:53.845Z,98995.00
2022-08-04T09:45:26.790Z,98994.88
2022-08-04T09:49:47.105Z,98996.66
2022-08-04T09:54:06.881Z,98983.91
2022-08-04T09:58:22.826Z,98972.28
2022-08-04T10:02:26.697Z,98975.69
2022-08-04T10:06:31.662Z,98968.25
2022-08-04T10:10:55.180Z,98964.34
2022-08-04T10:15:26.557Z,98966.72
2022-08-04T10:19:31.670Z,98961.47
2022-08-04T10:24:11.492Z,98955.00
2022-08-04T10:28:17.192Z,98942.06
2022-08-04T10:32:25.163Z,98953.28
2022-08-04T10:36:30.115Z,98946.66
2022-08-04T10:40:45.437Z,98943.81
2022-08-04T10:45:20.170Z,98934.31
2022-08-04T10:49:36.798Z,98936.44
2022-08-04T10:53:40.494Z,98929.63
2022-08-04T10:57:47.602Z,98926.72
2022-08-04T11:02:02.791Z,98924.25
2022-08-04T11:06:05.469Z,98925.16
2022-08-04T11:10:09.077Z,98929.09
2022-08-04T11:14:12.623Z,98914.53
2022-08-04T11:18:23.337Z,98914.66
2022-08-04T11:22:29.277Z,98915.53
2022-08-04T11:26:51.545Z,98916.69
2022-08-04T11:31:07.595Z,98907.00
2022-08-04T11:35:15.787Z,98910.44
2022-08-04T11:39:35.492Z,98898.34
2022-08-04T11:44:00.986Z,98907.28
2022-08-04T11:48:11.372Z,98895.31
2022-08-04T11:52:14.701Z,98898.28
2022-08-04T11:56:36.006Z,98903.53
2022-08-04T12:00:51.585Z,98903.13
2022-08-04T12:04:58.889Z,98900.97
2022-08-04T12:09:27.600Z,98902.09
2022-08-04T12:13:44.119Z,98903.63
2022-08-04T12:18:05.913Z,98901.34
2022-08-04T12:22:15.941Z,98887.03
2022-08-04T12:26:28.398Z,98889.88
2022-08-04T12:30:59.581Z,98892.63
2022-08-04T12:35:14.754Z,98885.34
2022-08-04T12:39:19.013Z,98874.00
2022-08-04T12:43:34.918Z,98869.72
2022-08-04T12:47:38.069Z,98877.47
2022-08-04T12:52:08.601Z,98878.00
2022-08-04T12:56:05.838Z,98875.03
2022-08-04T13:00:09.548Z,98871.06
2022-08-04T13:04:20.114Z,98864.81
2022-08-04T13:08:23.052Z,98866.09
2022-08-04T13:12:32.509Z,98865.03
2022-08-04T13:16:34.936Z,98858.63
2022-08-04T13:20:38.165Z,98846.72
2022-08-04T13:24:56.788Z,98857.69
2022-08-04T13:29:16.071Z,98849.84
2022-08-04T13:33:20.087Z,98845.41
2022-08-04T13:37:30.836Z,98839.78
2022-08-04T13:41:34.105Z,98840.16
2022-08-04T13:45:38.824Z,98827.78
2022-08-04T13:49:54.547Z,98834.50
2022-08-04T13:54:03.032Z,98819.50
2022-08-04T13:58:09.762Z,98823.66
2022-08-04T14:02:37.213Z,98821.91
2022-08-04T14:06:53.779Z,98817.06
2022-08-04T14:10:56.966Z,98820.59
2022-08-04T14:14:58.415Z,98811.00
2022-08-04T14:19:01.922Z,98808.69
2022-08-04T14:23:04.057Z,98812.94
2022-08-04T14:27:05.521Z,98809.59
2022-08-04T14:31:16.033Z,98808.28
2022-08-04T14:35:17.500Z,98797.72
2022-08-04T14:39:37.025Z,98798.06
2022-08-04T14:43:51.582Z,98799.59
2022-08-04T14:47:53.440Z,98792.00
2022-08-04T14:51:59.433Z,98794.38
2022-08-04T14:56:01.034Z,98782.78
2022-08-04T15:00:06.025Z,98789.28
2022-08-04T15:04:11.119Z,98788.88
2022-08-04T15:08:17.968Z,98793.41
2022-08-04T15:12:20.278Z,98783.41
2022-08-04T15:16:24.350Z,98789.47
2022-08-04T15:20:25.924Z,98788.75
2022-08-04T15:24:27.491Z,98782.97
2022-08-04T15:28:31.159Z,98775.72
2022-08-04T15:32:51.729Z,98770.03
2022-08-04T15:36:56.275Z,98774.50
2022-08-04T15:41:04.891Z,98762.44
2022-08-04T15:45:23.725Z,98757.41
2022-08-04T15:49:46.239Z,98754.69
2022-08-04T15:54:16.829Z,98755.28
2022-08-04T15:58:25.971Z,98758.97
2022-08-04T16:02:33.851Z,98749.56
2022-08-04T16:06:36.546Z,98742.78
2022-08-04T16:10:44.370Z,98744.44
2022-08-04T16:14:45.994Z,98740.13
2022-08-04T16:18:47.632Z,98732.81
2022-08-04T16:22:51.652Z,98737.09
2022-08-04T16:27:08.186Z,98737.94
2022-08-04T16:31:11.808Z,98729.13
2022-08-04T16:35:38.017Z,98730.75
2022-08-04T16:39:49.949Z,98723.94
2022-08-04T16:44:21.699Z,98723.72
2022-08-04T16:48:35.845Z,98725.78
2022-08-04T16:52:49.240Z,98722.38
2022-08-04T16:56:51.210Z,98722.63
2022-08-04T17:00:53.255Z,98725.25
2022-08-04T17:05:01.046Z,98713.88
2022-08-04T17:09:11.955Z,98712.25
2022-08-04T17:14:02.503Z,98709.72
2022-08-04T17:18:14.185Z,98705.06
2022-08-04T17:22:15.950Z,98705.91
2022-08-04T17:26:22.056Z,98706.66
2022-08-04T17:30:27.784Z,98711.06
2022-08-04T17:34:29.393Z,98710.06
2022-08-04T17:38:40.483Z,98708.06
2022-08-04T17:42:45.789Z,98709.91
2022-08-04T17:46:48.794Z,98710.75
2022-08-04T17:50:50.517Z,98714.28
2022-08-04T17:54:59.412Z,98722.38
2022-08-04T17:59:56.431Z,98722.00
2022-08-04T18:03:39.188Z,98724.22
2022-08-04T18:08:38.623Z,98724.03
2022-08-04T18:12:06.606Z,98728.94
2022-08-04T18:16:22.643Z,98728.88
2022-08-04T18:20:27.694Z,98733.91
2022-08-04T18:24:35.873Z,98736.19
2022-08-04T18:28:52.317Z,98739.06
2022-08-04T18:33:10.614Z,98736.09
2022-08-04T18:38:05.946Z,98752.72
2022-08-04T18:42:01.933Z,98753.16
2022-08-04T18:46:00.818Z,98757.94
2022-08-04T18:50:59.575Z,98760.88
2022-08-04T18:54:25.544Z,98775.06
2022-08-04T18:58:28.045Z,98772.31
2022-08-04T19:02:29.742Z,98783.59
2022-08-04T19:06:33.275Z,98790.47
2022-08-04T19:10:34.966Z,98805.53
2022-08-04T19:14:36.495Z,98808.06
2022-08-04T19:18:38.878Z,98811.81
2022-08-04T19:24:27.807Z,98825.22
2022-08-04T19:27:06.773Z,98828.47
2022-08-04T19:31:10.388Z,98828.84
2022-08-04T19:35:11.770Z,98841.56
2022-08-04T19:39:13.962Z,98838.97
2022-08-04T19:43:17.743Z,98853.34
2022-08-04T19:48:11.567Z,98855.47
2022-08-04T19:51:44.042Z,98864.22
2022-08-04T20:00:07.526Z,98869.56
2022-08-04T20:04:11.645Z,98871.06
2022-08-04T20:08:14.951Z,98878.16
2022-08-04T20:12:16.817Z,98884.63
2022-08-04T20:16:28.429Z,98881.75
2022-08-04T20:20:31.110Z,98904.00
2022-08-04T20:24:41.516Z,98906.28
2022-08-04T20:28:52.542Z,98908.34
2022-08-04T20:32:56.282Z,98901.31
2022-08-04T20:36:57.996Z,98914.69
2022-08-04T20:41:00.512Z,98908.25
2022-08-04T20:45:03.558Z,98904.47
2022-08-04T20:49:06.433Z,98914.88
2022-08-04T20:53:17.060Z,98914.19
2022-08-04T20:57:18.943Z,98920.03
2022-08-04T21:01:40.317Z,98922.09
2022-08-04T21:05:46.925Z,98925.25
2022-08-04T21:09:52.114Z,98928.56
2022-08-04T21:13:53.523Z,98931.16
2022-08-04T21:18:04.233Z,98933.09
2022-08-04T21:22:10.272Z,98936.38
2022-08-04T21:26:22.027Z,98943.75
2022-08-04T21:30:27.298Z,98957.28
2022-08-04T21:34:38.133Z,98975.44
2022-08-04T21:38:41.935Z,98993.94
2022-08-04T21:42:53.644Z,99006.63
2022-08-04T21:46:55.282Z,99005.81
2022-08-04T21:50:57.311Z,98999.53
2022-08-04T21:54:59.004Z,98992.78
2022-08-04T21:59:07.168Z,98993.97
2022-08-04T22:03:51.640Z,99012.41
2022-08-04T22:07:50.163Z,99030.94
2022-08-04T22:11:52.829Z,99040.41
2022-08-04T22:16:04.384Z,99057.00
2022-08-04T22:20:23.890Z,99067.53
2022-08-04T22:24:30.019Z,99075.44
2022-08-04T22:28:31.518Z,99043.56
2022-08-04T22:32:34.175Z,99031.97
2022-08-04T22:36:35.806Z,99021.63
2022-08-04T22:40:38.769Z,99002.72
2022-08-04T22:44:40.210Z,98967.22
2022-08-04T22:48:43.429Z,98962.47
2022-08-04T22:52:55.611Z,98963.31
2022-08-04T22:56:57.683Z,98966.78
2022-08-04T23:01:00.178Z,98991.13
2022-08-04T23:05:01.820Z,99024.16
2022-08-04T23:09:03.728Z,99078.56
2022-08-04T23:13:06.309Z,99092.09
2022-08-04T23:17:08.263Z,99124.16
2022-08-04T23:21:11.131Z,99103.31
2022-08-04T23:25:15.463Z,99097.38
2022-08-04T23:29:18.001Z,99109.19
2022-08-04T23:33:19.633Z,99100.56
2022-08-04T23:37:23.269Z,99068.38
2022-08-04T23:41:24.938Z,99034.66
2022-08-04T23:46:07.071Z,98930.00
2022-08-04T23:50:09.625Z,98872.81
2022-08-04T23:54:11.469Z,98832.16
2022-08-04T23:58:18.762Z,98851.06
